Time;durP1;ratioP1;P1;durP2;ratioP2;P2;SDS_P1;SDS_P2;PMS_P1;PMS_P2;Temp;Humidity;BMP_temperature;BMP_pressure;BME280_temperature;BME280_humidity;BME280_pressure;Samples;Min_cycle;Max_cycle;Signal;HPM_P1;HPM_P2
2023/04/10 00:01:08;;;;;;;12.53;9.57;;;;;;;4.37;97.95;98776.38;5132544;27;20206;-81
2023/04/10 00:03:34;;;;;;;14.13;9.97;;;;;;;4.33;98.74;98784.41;5133104;27;20232;-81
2023/04/10 00:06:01;;;;;;;15.20;10.23;;;;;;;4.30;99.06;98779.25;5133112;27;20209;-80
2023/04/10 00:08:27;;;;;;;12.37;9.47;;;;;;;4.26;99.27;98778.50;5132888;27;20204;-82
2023/04/10 00:10:54;;;;;;;15.13;10.07;;;;;;;4.27;99.08;98780.22;5132555;27;20210;-79
2023/04/10 00:13:21;;;;;;;15.20;10.97;;;;;;;4.28;99.22;98768.81;5133113;27;20232;-81
2023/04/10 00:15:48;;;;;;;13.63;9.93;;;;;;;4.32;99.17;98767.81;5133736;27;20209;-82
2023/04/10 00:18:16;;;;;;;13.90;9.90;;;;;;;4.29;99.28;98773.16;5133524;27;20259;-81
2023/04/10 00:20:42;;;;;;;15.53;10.83;;;;;;;4.21;99.98;98764.72;5132434;27;20233;-80
2023/04/10 00:23:09;;;;;;;15.20;10.97;;;;;;;4.16;100.00;98769.25;5152476;27;20222;-80
2023/04/10 00:25:35;;;;;;;16.60;11.67;;;;;;;4.25;100.00;98771.56;5154695;27;20203;-80
2023/04/10 00:28:02;;;;;;;17.00;11.57;;;;;;;4.25;100.00;98771.56;5154556;27;20213;-84
2023/04/10 00:30:28;;;;;;;15.60;10.37;;;;;;;4.19;100.00;98774.38;5132510;27;20198;-81
2023/04/10 00:32:55;;;;;;;14.53;10.60;;;;;;;4.13;100.00;98771.97;5132545;27;20212;-80
2023/04/10 00:35:22;;;;;;;14.93;11.10;;;;;;;4.07;100.00;98769.56;5132903;27;20201;-82
2023/04/10 00:37:50;;;;;;;15.23;10.37;;;;;;;3.99;100.00;98766.38;5133315;27;20202;-81
2023/04/10 00:40:16;;;;;;;15.03;10.63;;;;;;;3.98;100.00;98769.84;5133170;27;20225;-81
2023/04/10 00:42:43;;;;;;;14.50;10.47;;;;;;;3.98;100.00;98769.84;5138520;27;20266;-80
2023/04/10 00:45:10;;;;;;;14.83;11.00;;;;;;;3.96;100.00;98758.59;5139464;27;20216;-81
2023/04/10 00:47:37;;;;;;;15.60;10.83;;;;;;;3.96;100.00;98762.97;5139496;27;20213;-81
2023/04/10 00:50:05;;;;;;;14.43;9.83;;;;;;;3.91;100.00;98755.28;5136332;27;20206;-80
2023/04/10 00:52:33;;;;;;;14.73;9.90;;;;;;;3.87;100.00;98751.06;5137265;27;20218;-80
2023/04/10 00:55:00;;;;;;;16.83;11.47;;;;;;;3.83;100.00;98746.84;5133219;27;20225;-80
2023/04/10 00:57:27;;;;;;;15.20;10.47;;;;;;;3.83;100.00;98744.22;5132624;28;20292;-82
2023/04/10 00:59:53;;;;;;;15.10;10.37;;;;;;;3.79;100.00;98750.44;5128714;28;20764;-81
2023/04/10 01:02:20;;;;;;;14.10;9.67;;;;;;;3.79;100.00;98744.38;5128166;28;20212;-81
2023/04/10 01:04:47;;;;;;;14.93;10.57;;;;;;;3.76;100.00;98757.53;5129253;28;20232;-81
2023/04/10 01:07:27;;;;;;;13.53;10.03;;;;;;;3.75;100.00;98753.22;5131939;28;20583;-81
2023/04/10 01:10:05;;;;;;;17.90;10.63;;;;;;;3.75;100.00;98751.47;5131668;28;20221;-81
2023/04/10 01:12:44;;;;;;;14.90;10.30;;;;;;;3.77;100.00;98741.81;5132330;28;20193;-81
2023/04/10 01:15:13;;;;;;;13.90;9.47;;;;;;;3.81;100.00;98743.44;5132423;28;20276;-80
2023/04/10 01:17:46;;;;;;;14.50;9.40;;;;;;;3.81;100.00;98743.44;5132545;28;20231;-80
2023/04/10 01:20:16;;;;;;;14.47;10.20;;;;;;;3.85;100.00;98750.25;5131537;28;20253;-80
2023/04/10 01:22:58;;;;;;;14.37;9.67;;;;;;;3.86;100.00;98754.56;5132100;28;20304;-80
2023/04/10 01:25:46;;;;;;;16.60;10.67;;;;;;;3.88;100.00;98750.16;5131986;28;20219;-80
2023/04/10 01:28:33;;;;;;;15.17;10.50;;;;;;;3.87;100.00;98755.44;5131959;28;20206;-81
2023/04/10 01:31:02;;;;;;;15.63;10.70;;;;;;;3.92;100.00;98759.59;5130992;28;20205;-81
2023/04/10 01:33:35;;;;;;;14.67;9.97;;;;;;;3.89;100.00;98746.63;5131980;28;20228;-81
2023/04/10 01:36:06;;;;;;;16.30;10.23;;;;;;;3.76;100.00;98744.47;5132018;28;20304;-81
2023/04/10 01:38:33;;;;;;;13.37;9.20;;;;;;;3.67;100.00;98750.84;5132028;28;20772;-81
2023/04/10 01:41:01;;;;;;;14.70;10.10;;;;;;;3.57;100.00;98752.06;5131056;28;20230;-81
2023/04/10 01:43:30;;;;;;;14.07;9.40;;;;;;;3.47;100.00;98747.16;5131911;28;20220;-82
2023/04/10 01:45:57;;;;;;;11.43;8.63;;;;;;;3.38;100.00;98747.44;5131844;28;20212;-82
2023/04/10 01:48:26;;;;;;;15.87;10.13;;;;;;;3.34;100.00;98744.09;5131745;28;20209;-80
2023/04/10 01:50:54;;;;;;;14.87;10.70;;;;;;;3.31;100.00;98741.53;5131353;28;20209;-81
2023/04/10 01:53:22;;;;;;;15.50;9.87;;;;;;;3.30;100.00;98739.00;5131595;28;20235;-81
2023/04/10 01:55:50;;;;;;;16.30;10.77;;;;;;;3.26;100.00;98738.25;5131788;28;20212;-80
2023/04/10 01:58:17;;;;;;;15.73;10.60;;;;;;;3.25;100.00;98741.72;5131790;28;20205;-80
2023/04/10 02:00:43;;;;;;;15.47;10.20;;;;;;;3.22;100.00;98741.84;5130858;28;20267;-81
2023/04/10 02:03:10;;;;;;;14.77;10.23;;;;;;;3.19;100.00;98739.31;5132286;27;20227;-81
2023/04/10 02:05:48;;;;;;;16.23;10.83;;;;;;;3.14;100.00;98738.63;5135576;27;20204;-81
2023/04/10 02:08:22;;;;;;;14.40;10.20;;;;;;;3.16;100.00;98734.19;5135485;27;20212;-82
2023/04/10 02:10:54;;;;;;;16.43;10.67;;;;;;;3.14;100.00;98738.63;5134485;27;20283;-82
2023/04/10 02:13:22;;;;;;;14.90;10.53;;;;;;;3.16;100.00;98736.81;5143422;22;20323;-77
2023/04/10 02:15:51;;;;;;;15.47;9.80;;;;;;;3.13;100.00;98731.66;5010363;28;20233;-75
2023/04/10 02:18:19;;;;;;;16.30;11.33;;;;;;;3.13;100.00;98738.66;5010704;28;20262;-76
2023/04/10 02:20:47;;;;;;;14.77;10.33;;;;;;;3.11;100.00;98736.09;5009923;28;20233;-75
2023/04/10 02:23:15;;;;;;;15.07;10.27;;;;;;;3.04;100.00;98742.41;5010323;28;20222;-75
2023/04/10 02:25:42;;;;;;;14.07;10.33;;;;;;;3.01;100.00;98750.31;5010377;28;20676;-76
2023/04/10 02:28:08;;;;;;;15.57;10.37;;;;;;;2.97;100.00;98748.69;5010379;28;20220;-76
2023/04/10 02:30:35;;;;;;;16.13;11.20;;;;;;;2.93;100.00;98746.22;5009764;28;20235;-75
2023/04/10 02:33:02;;;;;;;14.47;9.87;;;;;;;2.92;100.00;98745.38;5010506;28;20220;-75
2023/04/10 02:35:28;;;;;;;15.93;10.37;;;;;;;2.95;100.00;98747.03;5010219;28;20230;-75
2023/04/10 02:37:56;;;;;;;16.17;10.37;;;;;;;3.09;100.00;98745.72;5010317;28;20214;-75
2023/04/10 02:40:23;;;;;;;15.27;10.07;;;;;;;3.21;100.00;98740.13;5009424;28;20237;-75
2023/04/10 02:42:50;;;;;;;13.53;9.40;;;;;;;3.26;100.00;98738.25;5010381;28;20205;-76
2023/04/10 02:45:16;;;;;;;13.87;10.30;;;;;;;3.40;100.00;98741.28;5010007;28;20225;-75
2023/04/10 02:47:43;;;;;;;15.90;9.97;;;;;;;3.44;100.00;98742.91;5010014;28;20209;-76
2023/04/10 02:50:10;;;;;;;14.20;9.17;;;;;;;3.32;100.00;98738.06;5009438;28;20205;-75
2023/04/10 02:52:37;;;;;;;15.63;10.30;;;;;;;3.12;100.00;98750.00;5010077;28;20628;-75
2023/04/10 02:55:06;;;;;;;14.43;9.73;;;;;;;2.99;100.00;98748.66;5010423;28;20229;-76
2023/04/10 02:57:32;;;;;;;15.27;10.20;;;;;;;2.84;100.00;98749.97;5010192;28;20602;-77
2023/04/10 02:59:58;;;;;;;14.17;9.60;;;;;;;2.76;100.00;98745.84;5009312;28;20241;-76
2023/04/10 03:02:25;;;;;;;15.03;9.93;;;;;;;2.70;100.00;98752.09;5010285;28;20217;-76
2023/04/10 03:04:52;;;;;;;15.27;10.10;;;;;;;2.68;100.00;98745.19;5009660;28;20346;-76
2023/04/10 03:07:19;;;;;;;15.57;10.20;;;;;;;2.66;100.00;98755.69;5009847;28;20267;-76
2023/04/10 03:09:45;;;;;;;16.00;11.20;;;;;;;2.71;100.00;98748.59;5009008;28;20205;-77
2023/04/10 03:12:13;;;;;;;14.03;10.10;;;;;;;2.72;100.00;98750.31;5009749;28;20722;-77
2023/04/10 03:14:40;;;;;;;17.57;11.03;;;;;;;2.88;100.00;98750.72;5009502;28;20246;-76
2023/04/10 03:17:06;;;;;;;16.53;10.60;;;;;;;2.81;100.00;98750.03;5010104;28;20212;-77
2023/04/10 03:19:33;;;;;;;15.67;10.33;;;;;;;2.77;100.00;98743.22;5008975;28;20221;-75
2023/04/10 03:21:59;;;;;;;17.70;10.53;;;;;;;2.70;100.00;98744.25;5009422;28;20214;-77
2023/04/10 03:24:26;;;;;;;16.30;10.73;;;;;;;2.65;100.00;98738.34;5009285;28;20228;-75
2023/04/10 03:26:52;;;;;;;14.73;10.33;;;;;;;2.65;100.00;98737.47;5009488;28;20293;-75
2023/04/10 03:29:20;;;;;;;17.57;10.67;;;;;;;2.65;100.00;98727.03;5008768;28;20679;-76
2023/04/10 03:31:47;;;;;;;15.17;10.97;;;;;;;2.61;100.00;98728.88;5009413;28;20220;-75
2023/04/10 03:34:13;;;;;;;17.50;11.30;;;;;;;2.57;100.00;98724.63;5009332;28;20226;-75
2023/04/10 03:36:40;;;;;;;15.90;10.17;;;;;;;2.53;100.00;98725.63;5009209;28;20591;-76
2023/04/10 03:39:06;;;;;;;16.93;11.13;;;;;;;2.48;100.00;98722.28;5009362;28;20308;-75
2023/04/10 03:41:33;;;;;;;14.37;9.67;;;;;;;2.47;100.00;98723.19;5009192;28;20237;-75
2023/04/10 03:44:02;;;;;;;17.57;11.00;;;;;;;2.42;100.00;98725.06;5009144;28;20226;-75
2023/04/10 03:46:29;;;;;;;17.53;10.83;;;;;;;2.40;100.00;98721.63;5009311;28;20247;-75
2023/04/10 03:48:56;;;;;;;16.03;10.23;;;;;;;2.43;100.00;98716.34;5009147;28;20678;-76
2023/04/10 03:51:23;;;;;;;17.23;11.77;;;;;;;2.42;100.00;98721.59;5008432;28;20205;-76
2023/04/10 03:53:50;;;;;;;14.77;10.53;;;;;;;2.42;100.00;98719.84;5009077;28;20225;-75
2023/04/10 03:56:16;;;;;;;15.53;10.30;;;;;;;2.45;100.00;98719.75;5008984;28;20770;-76
2023/04/10 03:58:43;;;;;;;15.97;11.23;;;;;;;2.46;100.00;98713.63;5009095;28;20295;-76
2023/04/10 04:01:10;;;;;;;14.73;9.80;;;;;;;2.46;100.00;98721.47;5008310;28;20248;-76
2023/04/10 04:03:38;;;;;;;15.47;10.70;;;;;;;2.48;100.00;98711.88;5008811;28;20274;-76
2023/04/10 04:06:04;;;;;;;15.13;10.33;;;;;;;2.47;100.00;98710.16;5009184;28;20217;-76
2023/04/10 04:08:31;;;;;;;16.50;10.17;;;;;;;2.53;100.00;98707.38;5009106;28;20209;-76
2023/04/10 04:10:57;;;;;;;15.87;10.90;;;;;;;2.52;100.00;98708.25;5008342;28;20550;-76
2023/04/10 04:13:24;;;;;;;16.23;10.17;;;;;;;2.47;100.00;98704.94;5008560;28;20220;-76
2023/04/10 04:15:50;;;;;;;18.00;10.70;;;;;;;2.44;100.00;98712.84;5008775;28;20213;-75
2023/04/10 04:18:17;;;;;;;15.47;10.50;;;;;;;2.41;100.00;98704.25;5008634;28;20697;-75
2023/04/10 04:20:45;;;;;;;16.93;10.63;;;;;;;2.42;100.00;98709.44;5008087;28;20229;-76
2023/04/10 04:23:11;;;;;;;17.63;11.27;;;;;;;2.41;100.00;98705.13;5008846;28;20235;-76
2023/04/10 04:25:38;;;;;;;16.40;11.13;;;;;;;2.46;100.00;98705.81;5008457;28;20221;-76
2023/04/10 04:28:04;;;;;;;17.20;10.63;;;;;;;2.44;100.00;98707.63;5008272;28;20217;-77
2023/04/10 04:30:31;;;;;;;17.90;10.60;;;;;;;2.46;100.00;98710.19;5007904;28;20217;-77
2023/04/10 04:32:57;;;;;;;15.93;10.40;;;;;;;2.47;100.00;98701.47;5008398;28;20212;-76
2023/04/10 04:35:24;;;;;;;14.40;9.83;;;;;;;2.48;100.00;98701.44;5008356;28;20237;-77
2023/04/10 04:37:52;;;;;;;17.47;10.60;;;;;;;2.51;100.00;98703.94;5008414;28;20216;-76
2023/04/10 04:40:18;;;;;;;18.13;10.57;;;;;;;2.49;100.00;98705.75;5007898;28;20609;-76
2023/04/10 04:42:45;;;;;;;16.43;11.10;;;;;;;2.48;100.00;98703.16;5008514;28;20331;-76
2023/04/10 04:45:11;;;;;;;16.10;10.63;;;;;;;2.43;100.00;98705.91;5008289;28;20236;-75
2023/04/10 04:47:38;;;;;;;16.03;10.83;;;;;;;2.41;100.00;98699.91;5008220;28;20213;-74
2023/04/10 04:50:05;;;;;;;15.77;10.70;;;;;;;2.43;100.00;98699.81;5007742;28;20209;-76
2023/04/10 04:52:34;;;;;;;17.30;11.87;;;;;;;2.43;100.00;98700.69;5008391;28;20342;-76
2023/04/10 04:55:01;;;;;;;17.23;10.90;;;;;;;2.47;100.00;98691.91;5008058;28;20275;-77
2023/04/10 04:57:28;;;;;;;17.77;11.57;;;;;;;2.62;100.00;98698.41;5008325;28;20526;-76
2023/04/10 04:59:55;;;;;;;16.13;10.97;;;;;;;2.82;100.00;98699.53;5007255;28;20229;-76
2023/04/10 05:02:21;;;;;;;15.23;10.27;;;;;;;3.00;100.00;98698.16;5008294;28;20216;-76
2023/04/10 05:04:48;;;;;;;16.17;11.10;;;;;;;3.16;100.00;98704.59;5008282;28;20229;-77
2023/04/10 05:07:14;;;;;;;15.40;9.80;;;;;;;3.31;100.00;98698.91;5008235;28;20213;-76
2023/04/10 05:09:41;;;;;;;13.63;9.23;;;;;;;3.45;100.00;98696.72;5007332;28;20214;-77
2023/04/10 05:12:09;;;;;;;15.77;9.77;;;;;;;3.58;100.00;98698.88;5008122;28;20213;-77
2023/04/10 05:14:36;;;;;;;13.67;9.03;;;;;;;3.66;100.00;98694.25;5007702;28;20389;-76
2023/04/10 05:17:02;;;;;;;12.37;8.47;;;;;;;3.73;100.00;98700.16;5008213;28;20213;-76
2023/04/10 05:19:29;;;;;;;12.47;9.10;;;;;;;3.80;100.00;98705.09;5007407;28;20209;-76
2023/04/10 05:21:55;;;;;;;12.13;8.37;;;;;;;3.89;100.00;98685.63;5007941;28;20297;-76
2023/04/10 05:24:21;;;;;;;11.97;8.37;;;;;;;3.95;100.00;98694.13;5007813;28;20237;-75
2023/04/10 05:26:48;;;;;;;13.00;8.47;;;;;;;3.97;100.00;98696.72;5007854;28;20232;-76
2023/04/10 05:29:16;;;;;;;13.37;9.37;;;;;;;3.95;100.00;98707.22;5007114;28;20221;-76
2023/04/10 05:31:42;;;;;;;13.27;8.63;;;;;;;4.02;100.00;98700.88;5007479;28;20205;-76
2023/04/10 05:34:09;;;;;;;13.67;9.10;;;;;;;4.03;100.00;98707.78;5007760;28;20234;-76
2023/04/10 05:36:35;;;;;;;13.17;8.57;;;;;;;4.17;100.00;98707.31;5007835;28;20255;-76
2023/04/10 05:39:02;;;;;;;11.93;8.90;;;;;;;4.37;100.00;98700.50;5008962;28;20216;-77
2023/04/10 05:41:28;;;;;;;12.33;8.23;;;;;;;4.47;100.00;98690.53;5011096;28;20233;-76
2023/04/10 05:43:55;;;;;;;11.53;8.30;;;;;;;4.60;100.00;98694.41;5010948;28;20232;-76
2023/04/10 05:46:22;;;;;;;13.70;9.10;;;;;;;4.65;100.00;98689.88;5011071;28;20206;-76
2023/04/10 05:48:49;;;;;;;11.73;8.37;;;;;;;4.78;99.41;98694.63;5011216;28;20283;-75
2023/04/10 05:51:15;;;;;;;13.97;9.10;;;;;;;4.94;98.69;98689.66;5010384;28;20220;-76
2023/04/10 05:53:42;;;;;;;12.37;8.43;;;;;;;5.11;99.51;98690.69;5010878;28;20233;-76
2023/04/10 05:56:08;;;;;;;11.33;8.20;;;;;;;5.24;100.00;98694.53;5010959;28;20210;-76
2023/04/10 05:58:35;;;;;;;11.87;8.43;;;;;;;5.38;99.88;98691.38;5010879;28;20224;-75
2023/04/10 06:01:01;;;;;;;13.03;9.00;;;;;;;5.45;99.45;98691.06;5010273;28;20270;-76
2023/04/10 06:03:30;;;;;;;11.80;8.73;;;;;;;5.58;98.66;98684.44;5010795;28;20229;-76
2023/04/10 06:05:57;;;;;;;10.70;7.70;;;;;;;5.66;96.43;98695.47;5010748;28;20309;-76
2023/04/10 06:08:23;;;;;;;10.80;8.20;;;;;;;5.76;94.70;98686.31;5010737;28;20209;-76
2023/04/10 06:10:50;;;;;;;12.27;8.50;;;;;;;5.84;93.30;98689.50;5009981;28;20219;-76
2023/04/10 06:13:16;;;;;;;12.83;8.77;;;;;;;5.87;93.38;98686.72;5010408;28;20746;-75
2023/04/10 06:15:43;;;;;;;12.37;8.57;;;;;;;5.94;93.05;98677.72;5010658;28;20744;-75
2023/04/10 06:18:10;;;;;;;12.33;8.67;;;;;;;5.97;93.74;98688.06;5010512;28;20300;-76
2023/04/10 06:20:38;;;;;;;11.97;8.13;;;;;;;5.96;93.42;98686.34;5009758;28;20435;-76
2023/04/10 06:23:05;;;;;;;12.03;8.07;;;;;;;5.94;92.79;98682.94;5010498;28;20212;-76
2023/04/10 06:25:31;;;;;;;10.93;8.47;;;;;;;5.91;91.32;98685.69;5010393;28;20207;-77
2023/04/10 06:27:58;;;;;;;11.80;8.60;;;;;;;5.88;90.75;98683.22;5010637;28;20207;-76
2023/04/10 06:30:24;;;;;;;11.80;8.43;;;;;;;5.90;89.24;98686.59;5009888;28;20582;-77
2023/04/10 06:32:51;;;;;;;11.63;8.90;;;;;;;5.89;90.20;98684.03;5010708;28;20216;-76
2023/04/10 06:35:17;;;;;;;11.80;8.43;;;;;;;5.95;89.27;98683.78;5010076;28;20310;-76
2023/04/10 06:37:45;;;;;;;12.43;8.23;;;;;;;6.02;88.93;98686.09;5010288;28;20215;-76
2023/04/10 06:40:14;;;;;;;11.57;8.43;;;;;;;6.15;88.69;98682.03;5009528;28;20205;-76
2023/04/10 06:42:41;;;;;;;10.97;8.37;;;;;;;6.17;88.56;98674.94;5010241;28;20321;-83
2023/04/10 06:45:08;;;;;;;9.90;7.70;;;;;;;6.25;87.95;98672.84;5010231;28;20238;-77
2023/04/10 06:47:35;;;;;;;11.07;8.23;;;;;;;6.29;87.81;98674.41;5010127;28;20212;-76
2023/04/10 06:50:01;;;;;;;10.93;8.37;;;;;;;6.32;87.45;98679.53;5008949;28;20264;-77
2023/04/10 06:52:28;;;;;;;10.83;7.83;;;;;;;6.48;87.33;98670.03;5009997;28;20206;-77
2023/04/10 06:54:56;;;;;;;9.77;7.67;;;;;;;6.59;85.96;98672.22;5010091;28;20234;-77
2023/04/10 06:57:22;;;;;;;10.77;8.00;;;;;;;6.68;85.93;98671.78;5010245;28;20216;-77
2023/04/10 06:59:49;;;;;;;11.13;8.07;;;;;;;6.72;85.33;98668.09;5009325;28;20705;-76
2023/04/10 07:02:15;;;;;;;11.20;8.23;;;;;;;6.78;84.95;98671.28;5010020;28;20328;-77
2023/04/10 07:04:42;;;;;;;10.60;7.70;;;;;;;6.94;83.14;98671.44;5009787;28;20243;-77
2023/04/10 07:07:11;;;;;;;10.27;7.70;;;;;;;7.12;82.21;98658.31;5009875;28;20209;-78
2023/04/10 07:09:38;;;;;;;10.17;7.03;;;;;;;7.39;81.43;98656.97;5009055;28;20350;-76
2023/04/10 07:12:06;;;;;;;9.67;7.30;;;;;;;7.66;81.05;98651.22;5009928;28;20297;-76
2023/04/10 07:14:33;;;;;;;10.60;8.00;;;;;;;7.89;80.96;98658.84;5009644;28;20234;-76
2023/04/10 07:17:09;;;;;;;10.20;8.07;;;;;;;8.09;79.16;98645.50;5009727;28;20211;-77
2023/04/10 07:19:36;;;;;;;10.67;7.33;;;;;;;8.37;78.57;98647.59;5008935;28;20208;-76
2023/04/10 07:22:03;;;;;;;10.17;7.87;;;;;;;8.58;75.71;98630.69;5009424;28;20293;-76
2023/04/10 07:24:30;;;;;;;8.90;7.30;;;;;;;8.69;76.72;98630.97;5009670;28;20251;-76
2023/04/10 07:26:57;;;;;;;10.17;7.40;;;;;;;8.84;76.32;98641.53;5009196;28;20201;-78
2023/04/10 07:29:25;;;;;;;9.60;7.27;;;;;;;9.03;75.42;98629.03;5005444;28;20210;-77
2023/04/10 07:31:51;;;;;;;10.70;7.53;;;;;;;9.16;76.36;98631.84;5008488;28;20204;-76
2023/04/10 07:34:18;;;;;;;9.93;7.47;;;;;;;9.23;74.79;98633.22;5008148;28;20575;-75
2023/04/10 07:36:44;;;;;;;9.40;7.00;;;;;;;9.41;71.13;98621.59;5008005;28;20307;-76
2023/04/10 07:39:11;;;;;;;11.60;8.03;;;;;;;9.55;71.90;98627.78;5007480;28;20559;-75
2023/04/10 07:41:37;;;;;;;10.93;7.70;;;;;;;9.78;71.87;98626.50;5008323;28;20259;-76
2023/04/10 07:44:04;;;;;;;9.88;8.07;;;;;;;9.87;70.04;98620.66;5007316;28;20925;-76
2023/04/10 07:46:32;;;;;;;9.20;7.20;;;;;;;9.89;68.00;98618.78;5009129;28;20213;-77
2023/04/10 07:48:58;;;;;;;8.90;6.87;;;;;;;9.98;68.50;98612.97;5009048;28;20267;-76
2023/04/10 07:51:26;;;;;;;8.60;6.80;;;;;;;10.09;68.46;98618.50;5008753;28;20210;-76
2023/04/10 07:53:52;;;;;;;7.87;6.20;;;;;;;10.40;68.30;98615.72;5009185;28;20234;-76
2023/04/10 07:56:20;;;;;;;9.83;6.70;;;;;;;10.54;66.70;98608.66;5009069;28;20214;-76
2023/04/10 07:58:48;;;;;;;8.70;7.00;;;;;;;10.72;67.01;98606.66;5009200;28;20298;-77
2023/04/10 08:01:15;;;;;;;8.03;6.23;;;;;;;10.71;65.67;98599.66;5007166;28;20240;-76
2023/04/10 08:03:46;;;;;;;7.90;6.50;;;;;;;10.78;63.98;98591.25;5009386;28;20661;-75
2023/04/10 08:06:12;;;;;;;7.83;5.97;;;;;;;10.92;63.41;98585.94;5008922;28;20285;-78
2023/04/10 08:08:40;;;;;;;5.80;5.20;;;;;;;11.10;62.79;98591.84;5008957;28;20215;-77
2023/04/10 08:11:21;;;;;;;7.13;5.60;;;;;;;11.39;62.49;98590.81;5008364;28;20218;-76
2023/04/10 08:13:48;;;;;;;6.93;5.47;;;;;;;11.57;60.63;98582.50;5021154;23;20734;-80
2023/04/10 08:16:14;;;;;;;6.77;5.67;;;;;;;11.70;58.84;98572.00;4989921;28;20596;-81
2023/04/10 08:18:42;;;;;;;5.70;4.80;;;;;;;11.88;59.40;98576.06;4989964;28;20216;-81
2023/04/10 08:21:09;;;;;;;6.63;5.50;;;;;;;11.79;59.14;98577.53;4989134;28;20229;-81
2023/04/10 08:23:35;;;;;;;6.73;6.03;;;;;;;11.88;60.19;98576.06;4989720;28;20219;-80
2023/04/10 08:26:02;;;;;;;6.67;5.53;;;;;;;11.99;58.88;98562.94;4990113;28;20234;-81
2023/04/10 08:28:28;;;;;;;7.20;6.07;;;;;;;12.00;58.63;98573.44;4988745;28;20216;-81
2023/04/10 08:30:55;;;;;;;7.00;5.20;;;;;;;12.01;57.18;98550.44;4987272;28;20202;-81
2023/04/10 08:33:21;;;;;;;6.83;5.33;;;;;;;12.14;58.40;98567.19;4985317;28;20221;-81
2023/04/10 08:35:49;;;;;;;6.73;5.20;;;;;;;12.03;56.73;98554.69;4986422;28;20297;-81
2023/04/10 08:38:15;;;;;;;6.90;5.40;;;;;;;12.32;56.61;98550.03;4987559;28;20265;-81
2023/04/10 08:40:43;;;;;;;6.33;5.10;;;;;;;12.38;55.59;98539.00;4988285;28;20317;-80
2023/04/10 08:43:10;;;;;;;6.33;4.97;;;;;;;12.32;54.83;98534.97;4989057;28;20242;-81
2023/04/10 08:45:36;;;;;;;6.80;5.50;;;;;;;12.42;55.92;98541.31;4989386;28;20227;-82
2023/04/10 08:48:05;;;;;;;6.37;4.80;;;;;;;12.49;55.76;98536.44;4989099;28;20216;-82
2023/04/10 08:50:35;;;;;;;5.57;4.67;;;;;;;12.60;55.47;98539.19;4988342;28;20217;-80
2023/04/10 08:53:08;;;;;;;5.87;4.70;;;;;;;12.70;53.57;98516.34;4989246;28;20224;-83
2023/04/10 08:55:35;;;;;;;6.70;5.10;;;;;;;12.85;54.83;98528.53;4989084;28;20235;-76
2023/04/10 08:58:02;;;;;;;6.03;5.40;;;;;;;12.99;54.58;98531.91;4989385;28;20589;-82
2023/04/10 09:00:30;;;;;;;6.20;4.63;;;;;;;13.28;52.86;98521.81;4988381;28;20214;-80
2023/04/10 09:02:58;;;;;;;7.53;5.57;;;;;;;13.25;53.03;98512.25;4988932;28;20241;-80
2023/04/10 09:05:27;;;;;;;6.03;5.00;;;;;;;13.45;53.44;98524.91;4988958;28;20444;-76
2023/04/10 09:07:53;;;;;;;4.90;4.20;;;;;;;13.58;51.55;98504.41;4987622;28;20236;-77
2023/04/10 09:10:22;;;;;;;4.80;4.00;;;;;;;13.89;51.95;98513.59;4985160;28;20218;-77
2023/04/10 09:12:48;;;;;;;5.03;4.53;;;;;;;14.09;51.97;98505.78;4989280;28;20436;-81
2023/04/10 09:15:15;;;;;;;5.70;3.93;;;;;;;14.35;49.48;98479.88;4992062;28;20721;-83
2023/04/10 09:17:56;;;;;;;4.67;4.20;;;;;;;14.45;48.83;98484.31;4992341;28;20218;-77
2023/04/10 09:20:25;;;;;;;4.10;3.70;;;;;;;14.48;50.80;98501.84;4991293;28;20239;-77
2023/04/10 09:22:51;;;;;;;4.17;3.67;;;;;;;14.45;47.95;98478.16;4992000;28;20238;-77
2023/04/10 09:25:34;;;;;;;3.43;3.13;;;;;;;14.45;46.49;98460.38;4991967;28;20237;-79
2023/04/10 09:28:05;;;;;;;4.83;3.60;;;;;;;14.72;48.23;98481.28;4991373;28;20270;-76
2023/04/10 09:30:36;;;;;;;3.40;3.10;;;;;;;14.72;47.57;98468.81;4991261;28;20643;-76
2023/04/10 09:33:03;;;;;;;3.80;3.30;;;;;;;14.71;45.28;98448.50;4991251;28;20294;-76
2023/04/10 09:35:38;;;;;;;3.73;3.00;;;;;;;14.62;44.89;98440.41;4989292;28;20238;-83
2023/04/10 09:38:15;;;;;;;3.13;2.83;;;;;;;14.85;45.46;98447.38;4989252;28;20214;-78
2023/04/10 09:40:44;;;;;;;5.27;3.10;;;;;;;15.25;45.99;98451.97;4990595;28;20212;-77
2023/04/10 09:43:21;;;;;;;3.13;2.83;;;;;;;15.45;44.44;98437.03;4991709;28;20236;-78
2023/04/10 09:45:50;;;;;;;3.33;3.03;;;;;;;15.47;43.42;98411.94;4989188;28;20262;-76
2023/04/10 09:48:16;;;;;;;2.77;2.53;;;;;;;15.47;43.78;98424.44;4989226;28;20219;-76
2023/04/10 09:50:43;;;;;;;3.23;2.93;;;;;;;15.44;43.21;98403.34;4990204;28;20204;-76
2023/04/10 09:53:11;;;;;;;3.20;2.90;;;;;;;15.55;42.41;98389.97;4991848;28;20217;-75
2023/04/10 09:55:37;;;;;;;3.20;2.90;;;;;;;15.59;43.23;98396.75;4989807;28;20257;-76
2023/04/10 09:58:06;;;;;;;3.20;2.90;;;;;;;15.45;41.74;98373.09;4988640;28;20217;-76
2023/04/10 10:00:38;;;;;;;3.27;2.90;;;;;;;15.45;42.36;98378.44;4989002;28;20221;-76
2023/04/10 10:03:08;;;;;;;3.30;2.50;;;;;;;15.58;42.39;98376.41;4991654;28;20264;-76
2023/04/10 10:05:36;;;;;;;3.00;2.70;;;;;;;15.72;42.93;98386.72;4990722;28;20244;-76
2023/04/10 10:08:03;;;;;;;2.80;2.50;;;;;;;15.64;41.29;98362.56;4988502;28;20221;-76
2023/04/10 10:10:30;;;;;;;3.23;2.73;;;;;;;15.59;41.09;98359.44;4987772;28;20747;-76
2023/04/10 10:13:00;;;;;;;3.00;2.70;;;;;;;15.77;42.27;98374.69;4991123;28;20217;-76
2023/04/10 10:15:41;;;;;;;3.00;2.70;;;;;;;16.08;41.37;98367.53;4991121;28;20240;-77
2023/04/10 10:18:17;;;;;;;2.63;2.40;;;;;;;16.18;41.97;98380.78;4991327;28;20235;-78
2023/04/10 10:20:46;;;;;;;3.27;2.80;;;;;;;16.39;41.68;98368.25;4990586;28;20216;-77
2023/04/10 10:23:13;;;;;;;2.83;2.50;;;;;;;16.50;41.09;98360.13;4991486;28;20237;-76
2023/04/10 10:25:40;;;;;;;2.97;2.63;;;;;;;16.63;40.62;98351.88;4990419;28;20252;-77
2023/04/10 10:28:07;;;;;;;2.50;2.20;;;;;;;16.63;41.63;98354.56;4991236;28;20213;-77
2023/04/10 10:30:36;;;;;;;2.70;2.50;;;;;;;16.65;40.50;98337.38;4990625;28;20212;-77
2023/04/10 10:33:06;;;;;;;2.50;2.30;;;;;;;16.77;41.10;98340.78;4990919;28;20281;-77
2023/04/10 10:35:34;;;;;;;2.83;2.27;;;;;;;16.89;39.33;98315.66;4991402;28;20670;-78
2023/04/10 10:38:03;;;;;;;2.73;2.53;;;;;;;16.96;39.66;98324.78;4991266;28;20676;-80
2023/04/10 10:40:32;;;;;;;2.60;2.40;;;;;;;16.94;40.77;98327.59;4987803;28;20206;-79
2023/04/10 10:43:08;;;;;;;2.13;1.93;;;;;;;17.00;39.87;98316.34;4988049;28;20238;-82
2023/04/10 10:45:44;;;;;;;2.43;2.23;;;;;;;17.32;40.50;98332.06;4987363;28;20601;-78
2023/04/10 10:48:10;;;;;;;2.50;2.30;;;;;;;17.45;39.16;98313.94;4990124;28;20578;-82
2023/04/10 10:50:57;;;;;;;2.60;2.40;;;;;;;17.47;37.74;98291.41;4990483;28;20595;-79
2023/04/10 10:53:38;;;;;;;2.77;2.50;;;;;;;17.41;38.07;98294.66;4988525;28;20206;-82
2023/04/10 10:56:36;;;;;;;2.53;2.33;;;;;;;17.40;38.78;98294.81;4988442;28;20620;-80
2023/04/10 10:59:03;;;;;;;2.63;2.43;;;;;;;17.49;39.13;98299.31;4990002;28;20217;-81
2023/04/10 11:01:31;;;;;;;2.40;2.20;;;;;;;17.56;38.86;98298.56;4990820;28;20221;-82
2023/04/10 11:03:58;;;;;;;2.33;2.13;;;;;;;17.61;37.47;98279.44;4989280;28;20263;-82
2023/04/10 11:06:51;;;;;;;2.67;2.40;;;;;;;17.61;37.87;98285.59;4987902;28;20218;-78
2023/04/10 11:09:49;;;;;;;2.33;2.10;;;;;;;17.59;38.17;98284.91;4988174;28;20218;-78
2023/04/10 11:12:17;;;;;;;1.73;1.63;;;;;;;17.46;37.36;98271.03;4930641;29;20212;-78
2023/04/10 11:14:45;;;;;;;2.23;2.03;;;;;;;17.48;38.69;98285.09;4976168;28;20234;-78
2023/04/10 11:17:13;;;;;;;2.10;1.90;;;;;;;17.53;37.01;98269.47;4988341;28;20214;-78
2023/04/10 11:19:59;;;;;;;2.17;1.97;;;;;;;17.52;37.19;98264.25;4987788;28;20241;-78
2023/04/10 11:22:26;;;;;;;2.37;2.17;;;;;;;17.61;37.29;98261.53;4990797;28;20230;-76
2023/04/10 11:24:58;;;;;;;2.28;2.00;;;;;;;17.78;37.97;98271.47;4989217;28;20535;-76
2023/04/10 11:27:43;;;;;;;2.20;2.00;;;;;;;17.92;37.54;98268.31;4985064;28;20207;-76
2023/04/10 11:30:40;;;;;;;3.10;1.73;;;;;;;17.91;36.60;98250.56;4986965;28;20771;-77
2023/04/10 11:33:08;;;;;;;2.13;1.93;;;;;;;17.79;36.69;98249.09;4929414;29;20208;-79